Tiempo atmosférico en la estación meteorológica de Lubia, Soria (1100 m.)



Fecha
DESCASC
Temp. máxima en grados centígrados (hora)
DESCASC
Temp. mínima en grados centígrados (hora)
DESCASC
Temp. media en grados centígrados
DESCASC
Racha de viento máxima en m/sg (hora)
DESCASC
Velocidad máxima media en intervalos de 10 minutos(hora)
DESCASC
Precipitaciones diarias en mm
DESCASC
Precipitaciones de 00:00 a 06:00 en mm
DESCASC
Precipitaciones de 06:00 a 12:00 en mm
DESCASC
Precipitaciones de 12:00 a 18:00 en mm
DESCASC
Precipitaciones de 18:00 a 24:00 en mm
DESCASC
22-11-2020 15.9 (14:50) -2.3 (08:20) 6.8 7.5 (12:10) 5.28 (12:40) 0 0 0 0 0
21-11-2020 15.2 (15:00) -0.4 (07:50) 7.4 7.78 (00:10) 4.72 (02:20) 0 0 0 0 0
20-11-2020 13.5 (14:20) 0.9 (06:30) 7.2 10.28 (20:20) 5.83 (20:10) 0 0 0 0 0
19-11-2020 16.7 (12:50) 3.1 (00:00) 9.9 9.72 (14:10) 5 (14:10) 0 0 0 0 0
18-11-2020 18.8 (15:40) 3.5 (00:00) 11.1 7.78 (14:10) 5.28 (14:00) 0 0 0 0 0
17-11-2020 18.9 (15:00) 0.6 (00:00) 9.7 5.83 (13:50) 3.61 (14:40) 0 0 0 0 0
16-11-2020 -- (--) -- (--) -- -- (--) -- (--) -- -- -- 0 0
15-11-2020 -- (--) -- (--) -- -- (--) -- (--) -- 0.2 0.2 -- --
14-11-2020 11.1 (12:20) 2.3 (00:00) 6.7 5.28 (17:20) 3.06 (17:20) 0.2 0 0 0.2 0
13-11-2020 15.3 (14:50) 4.2 (00:00) 9.8 5.83 (15:10) 3.61 (15:10) 0 0 0 0 0
12-11-2020 15.7 (15:00) 4.4 (00:00) 10 5 (01:40) 3.33 (01:00) 0 0 0 0 0
11-11-2020 15.4 (14:10) 0.8 (00:00) 8.1 7.78 (12:00) 4.72 (12:00) 0 0 0 0 0
10-11-2020 16.3 (16:20) 1.7 (00:00) 9 4.72 (07:50) 3.33 (12:40) 0 0 0 0 0
09-11-2020 15.4 (13:40) 3.3 (00:00) 9.3 7.5 (15:30) 5 (15:30) 0 0 0 0 0
08-11-2020 13.4 (13:00) 4.2 (00:00) 8.8 9.72 (13:30) 5.83 (12:30) 0 0 0 0 0
07-11-2020 11.3 (02:40) 7.4 (00:00) 9.4 12.78 (05:10) 6.94 (05:20) 20.2 15.4 1.8 3 0
06-11-2020 13.5 (13:20) 8.4 (00:00) 10.9 16.11 (16:50) 9.72 (16:50) 0 0 0 0 0
05-11-2020 11.8 (11:50) 4.4 (00:00) 8.1 11.39 (09:50) 7.5 (03:30) 2.2 0 0 0.6 1.6
04-11-2020 8 (13:40) 2.5 (00:00) 5.3 9.72 (16:40) 6.11 (16:40) 0.2 0 0 0 0.2
03-11-2020 10.3 (01:30) 4.8 (00:00) 7.6 9.72 (16:00) 5.28 (12:40) 7.6 0 7.4 0 0.2
02-11-2020 18.7 (14:30) 8.3 (00:00) 13.5 10.28 (13:00) 6.94 (12:50) 0 0 0 0 0
01-11-2020 19.4 (14:30) 6.6 (00:00) 13 8.61 (14:00) 5.83 (13:30) 0 0 0 0 0
31-10-2020 19.6 (14:10) 3.7 (00:00) 11.7 8.89 (14:10) 5.28 (15:10) 0 0 0 0 0
30-10-2020 19.3 (14:20) 0.8 (00:00) 10 6.67 (15:00) 4.44 (15:00) 0 0 0 0 0
29-10-2020 18 (15:50) 2.5 (00:00) 10.3 5.28 (14:20) 3.33 (20:50) 0 0 0 0 0
28-10-2020 16.5 (16:00) 6.2 (00:00) 11.3 8.61 (17:00) 5.28 (16:50) 0.8 0 0.8 0 0
27-10-2020 8.3 (13:10) 3.8 (00:00) 6.1 13.06 (15:00) 7.78 (15:10) 0 0 0 0 0

Gráficas

Temp. máximas Temp. mínimas Temp. medias Precipitaciones Rachas de viento máximas Velocidades máximas media en intervalos de 10 minutos

Datos horarios

Fecha y hora oficial Temperatura (ºC) Velocidad del viento (km/h) Dirección del viento Racha (km/h) Dirección de racha Precipitación (mm) Presión (hPa) Tendencia (hPa) Humedad (%)
2020-11-25 23:00:00 5.4 9 Sudeste 21 Este 0 -- -- 80
2020-11-25 22:00:00 5.8 12 Sudeste 23 Este 0 -- -- 77
2020-11-25 21:00:00 5.5 8 Este 18 Sudeste 0 -- -- 80
2020-11-25 20:00:00 6.6 12 Este 17 Sudeste 0 -- -- 76
2020-11-25 19:00:00 7.2 9 Sudeste 17 Sudeste 0 -- -- 77
2020-11-25 18:00:00 7.6 9 Sudeste 20 Sudeste 0 -- -- 76
2020-11-25 17:00:00 7.7 7 Sudeste 21 Sur 0 -- -- 78
2020-11-25 16:00:00 8.6 9 Sur 26 Sudeste 0 -- -- 74
2020-11-25 15:00:00 8.6 14 Sur 25 Sudeste 0 -- -- 73
2020-11-25 14:00:00 8.4 12 Sur 33 Sur 0 -- -- 72
2020-11-25 13:00:00 7.5 17 Sur 26 Sur 0 -- -- 74
2020-11-25 12:00:00 7.5 12 Sur 22 Sur 0 -- -- 75
2020-11-25 11:00:00 6.4 5 Sudeste 10 Este 0 -- -- 84
2020-11-25 10:00:00 2.5 4 Este 7 Sudeste 0 -- -- 94
2020-11-25 09:00:00 3 5 Sur 10 Sur 0 -- -- 98
2020-11-25 08:00:00 1.4 7 Sur 12 Sur 0 -- -- 98
2020-11-25 07:00:00 0.9 8 Sur 11 Sur 0 -- -- 99
2020-11-25 06:00:00 -0.1 6 Sur 12 Sur 0 -- -- 99
2020-11-25 05:00:00 0.3 9 Sur 14 Sur 0 -- -- 98
2020-11-25 04:00:00 0.6 9 Sur 13 Sur 0 -- -- 98
2020-11-25 03:00:00 0.8 9 Sur 13 Sur 0 -- -- 97
2020-11-25 02:00:00 -0.5 4 Sur 8 Sur 0 -- -- 97
2020-11-25 01:00:00 0.8 3 Sur 8 Sudoeste 0 -- -- 95
2020-11-25 00:00:00 2.3 5 Sur 10 Sur 0 -- -- 87
2020-11-24 23:00:00 3.4 9 Sur 12 Sudoeste 0 -- -- 81
2020-11-24 22:00:00 3.3 9 Sur 12 Sur 0 -- -- 81
2020-11-24 21:00:00 4.2 9 Sur 15 Sudoeste 0 -- -- 76
2020-11-24 20:00:00 4.6 9 Sur 12 Sur 0 -- -- 74
2020-11-24 19:00:00 6.1 8 Sudoeste 15 Sudoeste 0 -- -- 68
2020-11-24 18:00:00 7.2 5 Sudoeste 8 Sudoeste 0 -- -- 69
2020-11-24 17:00:00 12 4 Sudoeste 16 Oeste 0 -- -- 51
2020-11-24 16:00:00 12.1 10 Oeste 22 Sudoeste 0 -- -- 49
2020-11-24 15:00:00 11.8 16 Oeste 27 Oeste 0 -- -- 49
2020-11-24 14:00:00 13.9 15 Oeste 27 Noroeste 0 -- -- 42
2020-11-24 13:00:00 12.3 15 Oeste 24 Oeste 0 -- -- 49
2020-11-24 12:00:00 12.1 9 Oeste 17 Sudoeste 0 -- -- 53
2020-11-24 11:00:00 9.4 4 Sudoeste 9 Sudoeste 0 -- -- 65
2020-11-24 10:00:00 7.2 4 Sur 8 Sur 0 -- -- 72
2020-11-24 09:00:00 2.4 3 Este 4 Nordeste 0 -- -- 96
2020-11-24 08:00:00 -1 3 Nordeste 4 Nordeste 0 -- -- 99
2020-11-24 07:00:00 -1.3 3 Norte 6 Sur 0 -- -- 98
2020-11-24 06:00:00 0.1 4 Sur 10 Sur 0 -- -- 93
2020-11-24 05:00:00 0.4 4 Sudeste 5 Sudeste 0 -- -- 87
2020-11-24 04:00:00 0.8 2 Este 4 Este 0 -- -- 86
2020-11-24 03:00:00 1.3 4 Este 7 Este 0 -- -- 85
2020-11-24 02:00:00 0.5 4 Nordeste 6 Nordeste 0 -- -- 88
2020-11-24 01:00:00 2 3 Este 6 Nordeste 0 -- -- 80
2020-11-24 00:00:00 2.1 0 Calma 6 Sudeste 0 -- -- 74
2020-11-23 23:00:00 3.3 4 Sudeste 5 Sudeste 0 -- -- 70
2020-11-23 22:00:00 3.9 5 Este 7 Sur 0 -- -- 66
2020-11-23 21:00:00 5.6 6 Sur 8 Sur 0 -- -- 58
2020-11-23 20:00:00 6.9 4 Este 6 Este 0 -- -- 49
2020-11-23 19:00:00 7.3 4 Sudeste 5 Sudeste 0 -- -- 44
2020-11-23 18:00:00 7.6 5 Sudeste 5 Sudeste 0 -- -- 47
2020-11-23 17:00:00 14.8 4 Sudeste 10 Sudeste 0 -- -- 31
2020-11-23 16:00:00 17.3 3 Sudoeste 8 Sur 0 -- -- 25
2020-11-23 15:00:00 16.1 5 Este 10 Este 0 -- -- 29
2020-11-23 14:00:00 15.6 6 Sudeste 11 Sudeste 0 -- -- 34
2020-11-23 13:00:00 14.7 5 Sudeste 10 Sudeste 0 -- -- 41
2020-11-23 12:00:00 13.8 3 Sudeste 9 Sudoeste 0 -- -- 47
2020-11-23 11:00:00 10.9 5 Este 8 Este 0 -- -- 56
2020-11-23 10:00:00 9.4 3 Este 5 Este 0 -- -- 62
2020-11-23 09:00:00 4.3 0 Calma 4 Noroeste 0 -- -- 78
2020-11-23 08:00:00 -1.4 4 Noroeste 5 Norte 0 -- -- 97
2020-11-23 07:00:00 -0.9 3 Nordeste 8 Sudeste 0 -- -- 94
2020-11-23 06:00:00 0.5 5 Sudeste 5 Sudeste 0 -- -- 96
2020-11-23 05:00:00 1.3 3 Norte 4 Norte 0 -- -- 89
2020-11-23 04:00:00 0.6 3 Noroeste 5 Noroeste 0 -- -- 92
2020-11-23 03:00:00 0.5 4 Noroeste 6 Noroeste 0 -- -- 93
2020-11-23 02:00:00 1.8 2 Sudoeste 4 Sudoeste 0 -- -- 87
2020-11-23 01:00:00 2.4 2 Noroeste 4 Oeste 0 -- -- 84
2020-11-23 00:00:00 3 0 Calma 3 Nordeste 0 -- -- 81
2020-11-22 23:00:00 2.6 2 Oeste 5 Norte 0 -- -- 80
2020-11-22 22:00:00 3.6 4 Nordeste 12 Noroeste 0 -- -- 71
2020-11-22 21:00:00 6.1 10 Noroeste 14 Oeste 0 -- -- 66
2020-11-22 20:00:00 6 4 Noroeste 10 Oeste 0 -- -- 59
2020-11-22 19:00:00 7.1 7 Oeste 12 Oeste 0 -- -- 51
2020-11-22 18:00:00 8.4 8 Oeste 13 Oeste 0 -- -- 47
2020-11-22 17:00:00 13.5 10 Oeste 19 Oeste 0 -- -- 38
2020-11-22 16:00:00 14.8 13 Oeste 18 Oeste 0 -- -- 36
2020-11-22 15:00:00 15.9 11 Oeste 23 Sudoeste 0 -- -- 36
2020-11-22 14:00:00 14.6 15 Oeste 25 Oeste 0 -- -- 40
2020-11-22 13:00:00 13.2 17 Oeste 27 Oeste 0 -- -- 42
2020-11-22 12:00:00 13 17 Oeste 25 Oeste 0 -- -- 41
2020-11-22 11:00:00 12 10 Oeste 17 Oeste 0 -- -- 45
2020-11-22 10:00:00 10.6 0 Calma 5 Sudoeste 0 -- -- 50
2020-11-22 09:00:00 3.4 0 Calma 4 Oeste 0 -- -- 66
2020-11-22 08:00:00 -2 0 Calma 8 Oeste 0 -- -- 89
2020-11-22 07:00:00 -1.7 6 Oeste 8 Oeste 0 -- -- 92
2020-11-22 06:00:00 -0.8 0 Calma 4 Norte 0 -- -- 78
2020-11-22 05:00:00 -2 0 Calma 6 Sudeste 0 -- -- 82
2020-11-22 04:00:00 -0.5 5 Sudeste 8 Sudeste 0 -- -- 70
2020-11-22 03:00:00 1.1 6 Sudeste 9 Sudeste 0 -- -- 60
2020-11-22 02:00:00 1.6 5 Este 6 Este 0 -- -- 54
2020-11-22 01:00:00 -0.2 0 Calma 6 Nordeste 0 -- -- 62
2020-11-22 00:00:00 2.4 5 Este 9 Este 0 -- -- 51
2020-11-21 23:00:00 2.6 3 Este 8 Nordeste 0 -- -- 48
2020-11-21 22:00:00 1.5 4 Nordeste 5 Norte 0 -- -- 52
2020-11-21 21:00:00 2 3 Norte 5 Este 0 -- -- 49
2020-11-21 20:00:00 4.7 5 Sudeste 10 Sudeste 0 -- -- 39
2020-11-21 19:00:00 4.6 7 Sudeste 9 Sudeste 0 -- -- 43
2020-11-21 18:00:00 5.7 8 Sudeste 10 Sudeste 0 -- -- 42
2020-11-21 17:00:00 13.7 6 Sudeste 14 Sudeste 0 -- -- 25
2020-11-21 16:00:00 14.3 10 Sudeste 15 Sudeste 0 -- -- 23
2020-11-21 15:00:00 15.2 9 Sudeste 18 Este 0 -- -- 23
2020-11-21 14:00:00 14.7 10 Sudeste 16 Sudeste 0 -- -- 19
2020-11-21 13:00:00 14.4 7 Sudeste 13 Sudeste 0 -- -- 21
2020-11-21 12:00:00 12.7 5 Nordeste 14 Este 0 -- -- 19
2020-11-21 11:00:00 10.8 7 Este 13 Este 0 -- -- 22
2020-11-21 10:00:00 10.3 4 Sudeste 9 Sudeste 0 -- -- 21
2020-11-21 09:00:00 5.6 2 Norte 6 Norte 0 -- -- 39
2020-11-21 08:00:00 0.2 3 Oeste 9 Sur 0 -- -- 38
2020-11-21 07:00:00 0.5 5 Sur 12 Sur 0 -- -- 51
2020-11-21 06:00:00 1.7 6 Sur 13 Sur 0 -- -- 51
2020-11-21 05:00:00 2.4 6 Sur 21 Nordeste 0 -- -- 47
2020-11-21 04:00:00 7.3 11 Nordeste 22 Norte 0 -- -- 25
2020-11-21 03:00:00 6.5 12 Norte 26 Norte 0 -- -- 27
2020-11-21 02:00:00 6.4 10 Norte 24 Norte 0 -- -- 28
2020-11-21 01:00:00 6.1 9 Noroeste 28 Norte 0 -- -- 31
2020-11-21 00:00:00 6.7 16 Norte 31 Norte 0 -- -- 31
2020-11-20 23:00:00 6.1 15 Norte 32 Norte 0 -- -- 37
2020-11-20 22:00:00 5.2 11 Norte 28 Norte 0 -- -- 44
2020-11-20 21:00:00 6.1 17 Norte 37 Norte 0 -- -- 48
2020-11-20 20:00:00 5.9 17 Norte 29 Norte 0 -- -- 52
2020-11-20 19:00:00 5.9 7 Nordeste 24 Nordeste 0 -- -- 53
2020-11-20 18:00:00 6.7 9 Nordeste 23 Nordeste 0 -- -- 48
2020-11-20 17:00:00 10.6 14 Nordeste 29 Nordeste 0 -- -- 37
2020-11-20 16:00:00 12.3 13 Norte 25 Norte 0 -- -- 33
2020-11-20 15:00:00 13.3 12 Norte 23 Norte 0 -- -- 30
2020-11-20 14:00:00 12.8 10 Norte 27 Norte 0 -- -- 32
2020-11-20 13:00:00 11.5 12 Norte 30 Nordeste 0 -- -- 33
2020-11-20 12:00:00 9.4 14 Norte 27 Norte 0 -- -- 46
2020-11-20 11:00:00 8.1 15 Norte 32 Nordeste 0 -- -- 53
2020-11-20 10:00:00 7.3 18 Nordeste 29 Norte 0 -- -- 50
2020-11-20 09:00:00 5.5 17 Norte 27 Norte 0 -- -- 54
2020-11-20 08:00:00 2.9 11 Norte 27 Norte 0 -- -- 67
2020-11-20 07:00:00 3.2 15 Norte 27 Norte 0 -- -- 65
2020-11-20 06:00:00 2.2 8 Norte 13 Norte 0 -- -- 79
2020-11-20 05:00:00 2.2 7 Norte 22 Norte 0 -- -- 83
2020-11-20 04:00:00 3.9 13 Norte 24 Nordeste 0 -- -- 76
2020-11-20 03:00:00 2.6 8 Norte 13 Nordeste 0 -- -- 87
2020-11-20 02:00:00 3.4 7 Norte 26 Nordeste 0 -- -- 85
2020-11-20 01:00:00 4.2 11 Nordeste 22 Nordeste 0 -- -- 78
2020-11-20 00:00:00 3.1 3 Norte 15 Nordeste 0 -- -- 84
2020-11-19 23:00:00 4.8 10 Nordeste 19 Nordeste 0 -- -- 84
2020-11-19 22:00:00 5.7 10 Nordeste 22 Nordeste 0 -- -- 83
2020-11-19 21:00:00 6.8 10 Norte 21 Norte 0 -- -- 83
2020-11-19 20:00:00 8 14 Nordeste 26 Norte 0 -- -- 80
2020-11-19 19:00:00 9 12 Nordeste 28 Nordeste 0 -- -- 78
2020-11-19 18:00:00 10.4 14 Norte 33 Norte 0 -- -- 74
2020-11-19 17:00:00 12.5 17 Nordeste 29 Norte 0 -- -- 69
2020-11-19 16:00:00 16.3 11 Norte 21 Norte 0 -- -- 54
2020-11-19 15:00:00 16.2 13 Norte 35 Norte 0 -- -- 56
2020-11-19 14:00:00 16.4 15 Norte 28 Norte 0 -- -- 59
2020-11-19 13:00:00 16.2 16 Norte 27 Norte 0 -- -- 58
2020-11-19 12:00:00 15.8 13 Norte 30 Norte 0 -- -- 61
2020-11-19 11:00:00 14.6 17 Norte 29 Nordeste 0 -- -- 67
2020-11-19 10:00:00 13.3 8 Norte 18 Norte 0 -- -- 71
2020-11-19 09:00:00 10.6 5 Nordeste 17 Norte 0 -- -- 82
2020-11-19 08:00:00 6.5 9 Norte 18 Nordeste 0 -- -- 94
2020-11-19 07:00:00 4.6 6 Norte 10 Noroeste 0 -- -- 96
2020-11-19 06:00:00 4.8 7 Noroeste 10 Noroeste 0 -- -- 92
2020-11-19 05:00:00 6.2 7 Oeste 12 Norte 0 -- -- 89
2020-11-19 04:00:00 7.7 8 Noroeste 21 Oeste 0 -- -- 78
2020-11-19 03:00:00 10.7 13 Oeste 22 Oeste 0 -- -- 64
2020-11-19 02:00:00 10.6 12 Oeste 20 Oeste 0 -- -- 59
2020-11-19 01:00:00 11.7 10 Noroeste 26 Oeste 0 -- -- 56
2020-11-19 00:00:00 11.1 10 Noroeste 20 Noroeste 0 -- -- 62
2020-11-18 23:00:00 12 13 Noroeste 24 Oeste 0 -- -- 60
2020-11-18 22:00:00 11.6 15 Oeste 22 Oeste 0 -- -- 64
2020-11-18 21:00:00 11.3 13 Oeste 19 Oeste 0 -- -- 69
2020-11-18 20:00:00 11.4 12 Oeste 20 Oeste 0 -- -- 67
2020-11-18 19:00:00 12.8 15 Oeste 24 Oeste 0 -- -- 62
2020-11-18 18:00:00 13.3 15 Oeste 21 Oeste 0 -- -- 60
2020-11-18 17:00:00 16.9 12 Oeste 25 Oeste 0 -- -- 51
2020-11-18 16:00:00 18.7 14 Oeste 25 Oeste 0 -- -- 46
2020-11-18 15:00:00 18.4 15 Oeste 28 Oeste 0 -- -- 48
2020-11-18 14:00:00 18 19 Oeste 27 Oeste 0 -- -- 45
2020-11-18 13:00:00 17.3 17 Oeste 28 Oeste 0 -- -- 47
2020-11-18 12:00:00 16.2 16 Oeste 23 Oeste 0 -- -- 53
2020-11-18 11:00:00 13.7 8 Sudoeste -- -- -- -- -- 67
2020-11-18 10:00:00 11.6 4 Sudoeste 7 Sudoeste 0 -- -- 80
2020-11-18 09:00:00 7.7 2 Oeste 6 Sudoeste 0 -- -- 100
2020-11-18 08:00:00 3.5 2 Oeste 10 Sudoeste 0 -- -- 100
2020-11-18 07:00:00 5.2 7 Sudoeste 10 Sudoeste 0 -- -- 100
2020-11-18 06:00:00 5.7 4 Sudoeste 11 Sudoeste 0 -- -- 100
2020-11-18 05:00:00 5.6 6 Oeste 9 Oeste 0 -- -- 100
2020-11-18 04:00:00 3.8 4 Oeste 9 Sudoeste 0 -- -- 99
2020-11-18 03:00:00 4.9 0 Calma 10 Sur 0 -- -- 100
2020-11-18 02:00:00 5.8 3 Sur 9 Sudoeste 0 -- -- 100
2020-11-18 01:00:00 7.5 6 Sudoeste 13 Sudoeste 0 -- -- 97
2020-11-18 00:00:00 7.2 7 Sur 11 Sur 0 -- -- 95
2020-11-17 23:00:00 7.9 8 Sur 13 Sudoeste 0 -- -- 94
2020-11-17 22:00:00 8.6 10 Sur 14 Sur 0 -- -- 86
2020-11-17 21:00:00 9 9 Sur 13 Sudoeste 0 -- -- 82
2020-11-17 20:00:00 10.7 11 Sudoeste 16 Sudoeste 0 -- -- 72
2020-11-17 19:00:00 10.7 10 Sudoeste 14 Sudoeste 0 -- -- 50
2020-11-17 18:00:00 11.9 9 Sudoeste 13 Sudoeste 0 -- -- 55
2020-11-17 17:00:00 17.1 7 Sudoeste 15 Sudoeste 0 -- -- 37
2020-11-17 16:00:00 18.5 10 Oeste 18 Oeste 0 -- -- 35
2020-11-17 15:00:00 18.9 11 Oeste 20 Oeste 0 -- -- 30
2020-11-17 14:00:00 17.7 12 Oeste 21 Oeste 0 -- -- 26
2020-11-17 13:00:00 17.4 10 Oeste 15 Oeste 0 -- -- 34
2020-11-17 12:00:00 15.8 8 Oeste 13 Sudoeste 0 -- -- 55
2020-11-17 11:00:00 13.6 9 Oeste 13 Oeste 0 -- -- 69
2020-11-17 10:00:00 10.3 4 Sur 9 Noroeste 0 -- -- 90
2020-11-17 09:00:00 6.2 3 Noroeste 13 Oeste 0 -- -- 100
2020-11-17 08:00:00 1.7 9 Noroeste 12 Oeste 0 -- -- 100
2020-11-17 07:00:00 1.9 5 Oeste 6 Oeste 0 -- -- 100
2020-11-17 06:00:00 1.6 6 Sudeste 9 Sudeste 0 -- -- 100
2020-11-17 05:00:00 1.9 2 Nordeste 9 Noroeste 0 -- -- 100
2020-11-17 04:00:00 1.7 7 Oeste 9 Oeste 0 -- -- 100
2020-11-17 03:00:00 2.7 0 Calma 8 Oeste -- -- -- 100
2020-11-17 02:00:00 2.9 3 Este 10 Noroeste 0 -- -- 100
2020-11-17 01:00:00 3.3 8 Noroeste 10 Noroeste 0 -- -- 100
2020-11-17 00:00:00 3.9 4 Oeste 9 Oeste 0 -- -- 100
2020-11-16 23:00:00 4.2 10 Oeste 12 Oeste 0 -- -- 98
2020-11-16 22:00:00 5.1 6 Sudoeste 9 Sudoeste 0 -- -- 99
2020-11-16 21:00:00 6.7 5 Oeste 15 Noroeste 0 -- -- 91
2020-11-16 20:00:00 8.2 12 Oeste 17 Oeste 0 -- -- 86
2020-11-16 19:00:00 8.9 10 Noroeste 19 Oeste 0 -- -- 84
2020-11-16 18:00:00 9.8 11 Noroeste 18 Oeste 0 -- -- 80
2020-11-16 17:00:00 12.1 9 Oeste 26 Oeste 0 -- -- 70
2020-11-16 16:00:00 14.2 17 Oeste 26 Noroeste 0 -- -- 61
2020-11-16 15:00:00 15.4 13 Oeste 25 Noroeste 0 -- -- 60
2020-11-16 14:00:00 14.2 12 Oeste 21 Noroeste 0 -- -- 64
2020-11-16 13:00:00 14.1 13 Noroeste 33 Noroeste 0 -- -- 72
2020-11-16 12:00:00 11.6 5 Este 13 Este 0 -- -- 85
2020-11-16 11:00:00 11.9 5 Este 10 Este 0 -- -- 85
2020-11-16 10:00:00 10.1 6 Este 15 Oeste 0 -- -- 96
2020-11-16 09:00:00 9.4 7 Noroeste -- -- -- -- -- 98
2020-11-16 08:00:00 -- -- -- -- -- -- -- -- --
2020-11-16 07:00:00 -- -- -- -- -- -- -- -- --
2020-11-16 06:00:00 -- -- -- -- -- -- -- -- --
2020-11-16 05:00:00 -- -- -- -- -- -- -- -- --
2020-11-16 04:00:00 -- -- -- -- -- -- -- -- --
2020-11-16 03:00:00 -- -- -- -- -- -- -- -- --
2020-11-16 02:00:00 -- -- -- -- -- -- -- -- --
2020-11-16 01:00:00 -- -- -- -- -- -- -- -- --
2020-11-16 00:00:00 -- -- -- -- -- -- -- -- --
2020-11-15 23:00:00 -- -- -- -- -- -- -- -- --
2020-11-15 22:00:00 -- -- -- -- -- -- -- -- --
2020-11-15 21:00:00 -- -- -- -- -- -- -- -- --
2020-11-15 20:00:00 -- -- -- -- -- -- -- -- --
2020-11-15 19:00:00 -- -- -- -- -- -- -- -- --
2020-11-15 18:00:00 -- -- -- -- -- -- -- -- --
2020-11-15 17:00:00 -- -- -- -- -- -- -- -- --
2020-11-15 16:00:00 -- -- -- -- -- -- -- -- --
2020-11-15 15:00:00 -- -- -- -- -- -- -- -- --
2020-11-15 14:00:00 15.2 21 Oeste 47 Oeste 0 -- -- 74
2020-11-15 13:00:00 15.1 33 Oeste 49 Oeste 0 -- -- 74
2020-11-15 12:00:00 14 14 Sudoeste 31 Oeste 0 -- -- 83
2020-11-15 11:00:00 12.4 9 Oeste 17 Oeste 0 -- -- 93
2020-11-15 10:00:00 9.7 6 Sudoeste 17 Sur 0 -- -- 98
2020-11-15 09:00:00 8.5 10 Sur 17 Sudoeste 0.2 -- -- 100
2020-11-15 08:00:00 7.8 9 Sur 16 Sudoeste 0 -- -- 100
2020-11-15 07:00:00 7 10 Sudoeste 16 Sudoeste 0 -- -- 100
2020-11-15 06:00:00 6.9 10 Sudoeste 16 Sudoeste 0 -- -- 100
2020-11-15 05:00:00 7.8 7 Sudoeste 17 Sudoeste 0 -- -- 100
2020-11-15 04:00:00 8.3 9 Sudoeste 15 Sudoeste 0 -- -- 100
2020-11-15 03:00:00 8.5 9 Sudoeste 17 Sudoeste 0 -- -- 100
2020-11-15 02:00:00 8.3 9 Sudoeste 15 Sudoeste 0 -- -- 99
2020-11-15 01:00:00 8.3 7 Sudoeste 18 Sudoeste 0.2 -- -- 99
2020-11-15 00:00:00 7.9 11 Sudoeste 17 Sudoeste 0 -- -- 100
2020-11-14 23:00:00 7.5 8 Sudoeste 14 Sudoeste 0 -- -- 100
2020-11-14 22:00:00 6.6 3 Oeste 13 Sur 0 -- -- 100
2020-11-14 21:00:00 7.5 8 Sur 13 Sur 0 -- -- 100
2020-11-14 20:00:00 8 6 Sudoeste 17 Sudoeste 0 -- -- 97
2020-11-14 19:00:00 8.9 9 Sudoeste 17 Sur 0 -- -- 97
2020-11-14 18:00:00 9.6 9 Sur 19 Sudoeste 0 -- -- 95
2020-11-14 17:00:00 10.1 9 Sur 15 Sur 0 -- -- 92
2020-11-14 16:00:00 11 8 Sur 15 Sur 0 -- -- 88
2020-11-14 15:00:00 10.1 7 Sudoeste 13 Sudoeste 0 -- -- 93
2020-11-14 14:00:00 10.4 5 Sudoeste 11 Sudoeste 0.2 -- -- 92
2020-11-14 13:00:00 10.4 7 Sudoeste 13 Sur 0 -- -- 90
2020-11-14 12:00:00 11 7 Sudoeste 14 Sudoeste 0 -- -- 82
2020-11-14 11:00:00 8.3 3 Sudoeste 7 Sudoeste 0 -- -- 96
2020-11-14 10:00:00 5.2 0 Calma 4 Sudoeste 0 -- -- 99
2020-11-14 09:00:00 3.2 0 Calma 8 Sur 0 -- -- 99
2020-11-14 08:00:00 2.4 5 Sur 7 Sur 0 -- -- 100
2020-11-14 07:00:00 3.8 5 Sur 9 Sur 0 -- -- 100
2020-11-14 06:00:00 3.7 6 Sur 11 Sur 0 -- -- 99
2020-11-14 05:00:00 4.4 7 Sur 10 Sur 0 -- -- 99
2020-11-14 04:00:00 5.2 6 Sur 9 Sur 0 -- -- 98
2020-11-14 03:00:00 6.2 5 Sur 11 Sur 0 -- -- 94
2020-11-14 02:00:00 6.7 6 Sur 11 Sur 0 -- -- 93
2020-11-14 01:00:00 6.2 6 Sur 9 Sur 0 -- -- 95
2020-11-14 00:00:00 6.3 6 Sudeste 9 Sudeste 0 -- -- 94
2020-11-13 23:00:00 6.2 5 Sudeste 9 Sur 0 -- -- 93
2020-11-13 22:00:00 6.8 6 Sur 8 Sur 0 -- -- 89
2020-11-13 21:00:00 5.9 6 Sur 9 Sur 0 -- -- 90
2020-11-13 20:00:00 7 5 Sur 13 Sur 0 -- -- 85
2020-11-13 19:00:00 6.4 6 Sur 9 Sudoeste 0 -- -- 87
2020-11-13 18:00:00 9 5 Sudoeste 13 Sudoeste 0 -- -- 77
2020-11-13 17:00:00 13.1 10 Sur 17 Sur 0 -- -- 60
2020-11-13 16:00:00 14.3 9 Sudoeste 21 Sur 0 -- -- 55
2020-11-13 15:00:00 14.9 10 Sudoeste 19 Sudoeste 0 -- -- 56
2020-11-13 14:00:00 14.1 7 Sur 14 Sudoeste 0 -- -- 61
2020-11-13 13:00:00 12.6 9 Sur 19 Sur 0 -- -- 67
2020-11-13 12:00:00 13.1 6 Sur 14 Sudeste 0 -- -- 66
2020-11-13 11:00:00 11 10 Sur 18 Sudeste 0 -- -- 72
2020-11-13 10:00:00 8.2 3 Este 7 Sudeste 0 -- -- 88
2020-11-13 09:00:00 4.9 5 Sudeste 8 Norte 0 -- -- 98
2020-11-13 08:00:00 4.5 4 Sur 8 Sur 0 -- -- 98
2020-11-13 07:00:00 4.8 5 Sudeste 10 Sudeste 0 -- -- 96
2020-11-13 06:00:00 5.2 6 Sur 10 Sur 0 -- -- 97
2020-11-13 05:00:00 4.5 6 Sudeste 8 Sudeste 0 -- -- 98
2020-11-13 04:00:00 4.8 0 Calma 7 Sudeste 0 -- -- 98
2020-11-13 03:00:00 5.6 5 Sudeste 6 Sudeste 0 -- -- 96
2020-11-13 02:00:00 5.6 2 Nordeste 4 Este 0 -- -- 96
2020-11-13 01:00:00 5.8 0 Calma 4 Este 0 -- -- 93
2020-11-13 00:00:00 6.2 0 Calma 5 Sudeste 0 -- -- 92
2020-11-12 23:00:00 6.5 3 Este 7 Este 0 -- -- 93
2020-11-12 22:00:00 6.8 5 Sudeste 7 Este 0 -- -- 90
2020-11-12 21:00:00 7.1 5 Sudeste 8 Sudeste 0 -- -- 87
2020-11-12 20:00:00 6.7 6 Sudeste 8 Sudeste 0 -- -- 88
2020-11-12 19:00:00 6.5 5 Este 6 Este 0 -- -- 94
2020-11-12 18:00:00 8.3 4 Sudeste 8 Sur 0 -- -- 83
2020-11-12 17:00:00 12.8 5 Sur 12 Sudoeste 0 -- -- 64
2020-11-12 16:00:00 15.4 6 Sudeste 14 Este 0 -- -- 55
2020-11-12 15:00:00 15.7 2 Nordeste 10 Oeste 0 -- -- 47
2020-11-12 14:00:00 13.8 5 Sudoeste 13 Sudoeste 0 -- -- 63
2020-11-12 13:00:00 12.6 10 Sudoeste 15 Sudoeste 0 -- -- 69
2020-11-12 12:00:00 10.6 6 Sur 10 Sur 0 -- -- 79
2020-11-12 11:00:00 9.3 0 Calma 4 Norte 0 -- -- 80
2020-11-12 10:00:00 6.6 0 Calma 5 Norte 0 -- -- 89
2020-11-12 09:00:00 4.8 0 Calma 10 Sudoeste 0 -- -- 95
2020-11-12 08:00:00 5.4 9 Sudoeste 13 Sudoeste 0 -- -- 89
2020-11-12 07:00:00 5 8 Sudoeste 13 Sudoeste 0 -- -- 92
2020-11-12 06:00:00 6.1 10 Sudoeste 14 Sudoeste 0 -- -- 87
2020-11-12 05:00:00 6.1 9 Sudoeste 12 Sudoeste 0 -- -- 90
2020-11-12 04:00:00 5.8 6 Oeste 13 Sudoeste 0 -- -- 91
2020-11-12 03:00:00 6.3 9 Sudoeste 16 Sudoeste 0 -- -- 90
2020-11-12 02:00:00 6.6 9 Sudoeste 18 Sudoeste 0 -- -- 89
2020-11-12 01:00:00 5.7 12 Sudoeste 16 Sudoeste 0 -- -- 95
2020-11-12 00:00:00 5.7 7 Oeste 12 Sudoeste 0 -- -- 95
2020-11-11 23:00:00 6.2 9 Sudoeste 14 Sudoeste 0 -- -- 91
2020-11-11 22:00:00 6.5 8 Sudoeste 15 Sudoeste 0 -- -- 86
2020-11-11 21:00:00 7 9 Sudoeste 15 Oeste 0 -- -- 82
2020-11-11 20:00:00 7.3 5 Sudoeste 12 Oeste 0 -- -- 77
2020-11-11 19:00:00 7.8 8 Sudoeste 12 Sudoeste 0 -- -- 75
2020-11-11 18:00:00 8.8 8 Oeste 11 Oeste 0 -- -- 67
2020-11-11 17:00:00 13.6 6 Oeste 22 Sudoeste 0 -- -- 54
2020-11-11 16:00:00 13.7 12 Sudoeste 23 Oeste 0 -- -- 56
2020-11-11 15:00:00 14.9 11 Sudoeste 26 Sudoeste 0 -- -- 54
2020-11-11 14:00:00 15 15 Sudoeste 26 Sudoeste 0 -- -- 53
2020-11-11 13:00:00 13.7 14 Sur 26 Sur 0 -- -- 59
2020-11-11 12:00:00 11.8 17 Sudoeste 28 Sudoeste 0 -- -- 67
2020-11-11 11:00:00 10.4 10 Sudoeste 15 Sudoeste 0 -- -- 75
2020-11-11 10:00:00 8.6 5 Sudeste 10 Este 0 -- -- 87
2020-11-11 09:00:00 5.5 4 Sudeste 6 Este 0 -- -- 100
2020-11-11 08:00:00 1.7 5 Este 6 Este 0 -- -- 100
2020-11-11 07:00:00 1.1 0 Calma 2 Nordeste 0 -- -- 100
2020-11-11 06:00:00 2.7 3 Nordeste 7 Este 0 -- -- 100
2020-11-11 05:00:00 2.9 0 Calma -- -- 0 -- -- 100
2020-11-11 04:00:00 2.3 2 Nordeste 4 Nordeste 0 -- -- 100
2020-11-11 03:00:00 2.5 0 Calma 8 Sudeste 0 -- -- 100
2020-11-11 02:00:00 3.3 6 Este 8 Este 0 -- -- 100
2020-11-11 01:00:00 3.6 3 Nordeste 5 Nordeste 0 -- -- 100
2020-11-11 00:00:00 3 3 Este 4 Este 0 -- -- 100
2020-11-10 23:00:00 3.9 0 Calma 5 Nordeste 0 -- -- 99
2020-11-10 22:00:00 5.1 4 Noroeste 8 Noroeste 0 -- -- 94
2020-11-10 21:00:00 5.7 5 Oeste 9 Oeste 0 -- -- 88
2020-11-10 20:00:00 7.3 6 Oeste 12 Oeste 0 -- -- 81
2020-11-10 19:00:00 8.1 8 Sudoeste 11 Sudoeste 0 -- -- 78
2020-11-10 18:00:00 8.6 6 Sudoeste 10 Sudoeste 0 -- -- 81
2020-11-10 17:00:00 13.9 5 Oeste 12 Oeste 0 -- -- 56
2020-11-10 16:00:00 15.8 4 Sudoeste 13 Oeste 0 -- -- 50
2020-11-10 15:00:00 15.4 5 Oeste 15 Sudoeste 0 -- -- 53
2020-11-10 14:00:00 14.7 4 Oeste 13 Noroeste 0 -- -- 56
2020-11-10 13:00:00 12.5 8 Noroeste 17 Oeste 0 -- -- 71
2020-11-10 12:00:00 10.2 8 Noroeste 12 Noroeste 0 -- -- 78
2020-11-10 11:00:00 10.7 5 Norte 11 Oeste 0 -- -- 82
2020-11-10 10:00:00 10 6 Oeste 11 Oeste 0 -- -- 92
2020-11-10 09:00:00 6.1 6 Oeste 12 Oeste 0 -- -- 100
2020-11-10 08:00:00 4.2 8 Oeste 17 Oeste 0 -- -- 100
2020-11-10 07:00:00 2.2 4 Noroeste 10 Oeste 0 -- -- 100
2020-11-10 06:00:00 2.1 4 Norte 9 Norte 0 -- -- 100
2020-11-10 05:00:00 3.7 6 Oeste 9 Oeste 0 -- -- 100
2020-11-10 04:00:00 3.8 6 Noroeste 14 Oeste 0 -- -- 100
2020-11-10 03:00:00 3.1 7 Noroeste 12 Noroeste 0 -- -- 100
2020-11-10 02:00:00 4.4 7 Noroeste 15 Oeste 0 -- -- 97
2020-11-10 01:00:00 4.8 10 Oeste 14 Oeste 0 -- -- 100
2020-11-10 00:00:00 4.8 5 Oeste 12 Sudoeste 0 -- -- 98
2020-11-09 23:00:00 4.8 6 Oeste 9 Oeste 0 -- -- 99
2020-11-09 22:00:00 4.4 5 Oeste 9 Oeste 0 -- -- 99
2020-11-09 21:00:00 5.7 5 Oeste 10 Oeste 0 -- -- 97
2020-11-09 20:00:00 5.8 5 Oeste 7 Oeste 0 -- -- 94
2020-11-09 19:00:00 6.9 5 Oeste 8 Oeste 0 -- -- 90
2020-11-09 18:00:00 9.3 6 Oeste 19 Oeste 0 -- -- 79
2020-11-09 17:00:00 12 9 Sudoeste 14 Sudoeste 0 -- -- 69
2020-11-09 16:00:00 11.7 9 Sudoeste 27 Oeste 0 -- -- 70
2020-11-09 15:00:00 15.4 14 Oeste 26 Oeste 0 -- -- 55
2020-11-09 14:00:00 15.3 15 Oeste 24 Noroeste 0 -- -- 55
2020-11-09 13:00:00 13.7 12 Noroeste 24 Oeste 0 -- -- 67
2020-11-09 12:00:00 12.2 12 Sudoeste 21 Oeste 0 -- -- 78
2020-11-09 11:00:00 10 10 Sudoeste 15 Sudoeste 0 -- -- 92
2020-11-09 10:00:00 7.9 4 Sudoeste 6 Oeste 0 -- -- 99
2020-11-09 09:00:00 5.8 0 Calma 8 Sur 0 -- -- 100
2020-11-09 08:00:00 6 4 Sur 14 Sur 0 -- -- 100
2020-11-09 07:00:00 5.8 5 Sudoeste 10 Sur 0 -- -- 100
2020-11-09 06:00:00 3.8 3 Sudeste 5 Este 0 -- -- 100
2020-11-09 05:00:00 4 3 Este 7 Sudeste 0 -- -- 100
2020-11-09 04:00:00 3.7 4 Este 5 Este 0 -- -- 100
2020-11-09 03:00:00 3.9 2 Nordeste 6 Sudeste 0 -- -- 100
2020-11-09 02:00:00 4 5 Sudeste 6 Sudeste 0 -- -- 100
2020-11-09 01:00:00 4.1 4 Nordeste 9 Sur 0 -- -- 99
2020-11-09 00:00:00 5.8 6 Sudoeste 12 Sudoeste 0 -- -- 98
2020-11-08 23:00:00 4.9 7 Sur 10 Sur 0 -- -- 99
2020-11-08 22:00:00 4.2 2 Norte 10 Sudoeste 0 -- -- 95
2020-11-08 21:00:00 6.3 7 Sur 13 Sudoeste 0 -- -- 92
2020-11-08 20:00:00 6.6 6 Sur 17 Sur 0 -- -- 88
2020-11-08 19:00:00 8 11 Sur 22 Sur 0 -- -- 80
2020-11-08 18:00:00 9.1 11 Sudoeste 24 Sur 0 -- -- 75
2020-11-08 17:00:00 12 15 Sur 27 Sur 0 -- -- 66
2020-11-08 16:00:00 12.7 18 Sur 33 Sudoeste 0 -- -- 64
2020-11-08 15:00:00 13.1 13 Sudoeste 33 Sudoeste 0 -- -- 65
2020-11-08 14:00:00 12.8 15 Sur 35 Sudoeste 0 -- -- 69
2020-11-08 13:00:00 13.4 21 Sur 35 Sur 0 -- -- 68
2020-11-08 12:00:00 10.1 11 Sudoeste 24 Sur 0 -- -- 86
2020-11-08 11:00:00 9.6 15 Sur 26 Sur 0 -- -- 89
2020-11-08 10:00:00 8.1 10 Sur 23 Sur 0 -- -- 98
2020-11-08 09:00:00 6.5 6 Sudeste 9 Sudeste 0 -- -- 100
2020-11-08 08:00:00 4.8 5 Sudeste 8 Sur 0 -- -- 100
2020-11-08 07:00:00 5.6 6 Sur 12 Sur 0 -- -- 100
2020-11-08 06:00:00 5.6 6 Sur 10 Sur 0 -- -- 100
2020-11-08 05:00:00 5.9 8 Sur 15 Sur 0 -- -- 100
2020-11-08 04:00:00 5.7 9 Sur 14 Sur 0 -- -- 100
2020-11-08 03:00:00 5.3 6 Sur 16 Sudoeste 0 -- -- 99
2020-11-08 02:00:00 6.4 9 Sudoeste 15 Sudoeste 0 -- -- 98
2020-11-08 01:00:00 7.6 8 Sudoeste 14 Sudoeste 0 -- -- 98
2020-11-08 00:00:00 7.8 8 Sudoeste 12 Sudoeste 0 -- -- 98
2020-11-07 23:00:00 7.8 6 Sudoeste 13 Sudoeste 0 -- -- 99
2020-11-07 22:00:00 7.9 7 Sudoeste 16 Sudoeste 0 -- -- 99
2020-11-07 21:00:00 8.4 8 Sudoeste 15 Sudoeste 0 -- -- 98
2020-11-07 20:00:00 8.2 9 Sudoeste 14 Sudoeste 0 -- -- 99
2020-11-07 19:00:00 7.9 8 Sudoeste 15 Sudoeste 0 -- -- 99
2020-11-07 18:00:00 8.6 8 Sudoeste 14 Sudoeste 0 -- -- 98
2020-11-07 17:00:00 9.1 9 Sudoeste 22 Sudoeste 0 -- -- 95
2020-11-07 16:00:00 9.1 13 Sudoeste 27 Sudoeste 1 -- -- 94
2020-11-07 15:00:00 8.2 16 Sudoeste 43 Sudoeste 1.6 -- -- 98
2020-11-07 14:00:00 10.7 14 Sudoeste 26 Sudoeste 0.2 -- -- 88
2020-11-07 13:00:00 10.1 13 Sudoeste 26 Sur 0.2 -- -- 92
2020-11-07 12:00:00 10.2 11 Sudoeste 20 Sudoeste 0 -- -- 95
2020-11-07 11:00:00 9.9 6 Sur 15 Sudeste 0 -- -- 95
2020-11-07 10:00:00 9.1 6 Sur 22 Sur 0 -- -- 97
2020-11-07 09:00:00 8.5 9 Sur 20 Sudeste 0 -- -- 99
2020-11-07 08:00:00 7.7 12 Sudeste 22 Sudeste 0 -- -- 100
2020-11-07 07:00:00 7.8 2 Noroeste 13 Sur 1.8 -- -- 100
2020-11-07 06:00:00 8.1 11 Sur 46 Sudoeste 8.2 -- -- 98
2020-11-07 05:00:00 10.2 5 Sur 23 Este 6.2 -- -- 99
2020-11-07 04:00:00 10.3 14 Este 35 Sudeste 1 -- -- 99
2020-11-07 03:00:00 11.2 19 Sudeste 35 Este 0 -- -- 92
2020-11-07 02:00:00 10.9 17 Sudeste 34 Sudeste 0 -- -- 92
2020-11-07 01:00:00 10.8 19 Sudeste 31 Este 0 -- -- 93
2020-11-07 00:00:00 11 21 Sudeste 33 Sudeste 0 -- -- 92
2020-11-06 23:00:00 11.2 18 Este 33 Sudeste 0 -- -- 92
2020-11-06 22:00:00 11.8 25 Este 42 Este 0 -- -- 89
2020-11-06 21:00:00 11.5 21 Este 36 Este 0 -- -- 92
2020-11-06 20:00:00 11.8 17 Este 39 Sudeste 0 -- -- 92
2020-11-06 19:00:00 12 24 Sudeste 43 Sudeste 0 -- -- 92
2020-11-06 18:00:00 12.5 26 Sudeste 47 Este 0 -- -- 90
2020-11-06 17:00:00 13.2 30 Sudeste 58 Este 0 -- -- 87
2020-11-06 16:00:00 13.1 28 Este 40 Sudeste 0 -- -- 88
2020-11-06 15:00:00 12.8 21 Este 30 Este 0 -- -- 90
2020-11-06 14:00:00 12.8 17 Este 35 Este 0 -- -- 89
2020-11-06 13:00:00 13 20 Este 44 Este 0 -- -- 85
2020-11-06 12:00:00 12.7 26 Este 45 Este 0 -- -- 86
2020-11-06 11:00:00 11.2 15 Este 30 Este 0 -- -- 94
2020-11-06 10:00:00 10.1 17 Este 30 Este 0 -- -- 98
2020-11-06 09:00:00 9.3 17 Este 30 Este 0 -- -- 99
2020-11-06 08:00:00 8.8 13 Este 21 Este 0 -- -- 99
2020-11-06 07:00:00 9 14 Este 20 Este 0 -- -- 99
2020-11-06 06:00:00 8.8 11 Sudeste 28 Sudeste 0 -- -- 99
2020-11-06 05:00:00 8.8 19 Sudeste 33 Este 0 -- -- 98
2020-11-06 04:00:00 8.7 11 Este 31 Sudeste 0 -- -- 99
2020-11-06 03:00:00 8.7 18 Sudeste 34 Este 0 -- -- 98
2020-11-06 02:00:00 8.6 21 Sudeste 35 Sudeste 0 -- -- 97
2020-11-06 01:00:00 8.4 18 Sudeste 33 Sudeste 0 -- -- 98
2020-11-06 00:00:00 8.6 17 Sudeste 31 Sudeste 0 -- -- 99
2020-11-05 23:00:00 8.5 16 Este 36 Este 0 -- -- 100
2020-11-05 22:00:00 8.1 21 Este 40 Este 0.2 -- -- 100
2020-11-05 21:00:00 7.9 22 Este 36 Este 1 -- -- 100
2020-11-05 20:00:00 8.3 18 Este 28 Este 0.4 -- -- 99
2020-11-05 19:00:00 7.8 13 Este 31 Este 0 -- -- 98
2020-11-05 18:00:00 8 20 Este 33 Este 0 -- -- 97
2020-11-05 17:00:00 8.1 20 Este 33 Este 0.2 -- -- 96
2020-11-05 16:00:00 8.6 19 Este 32 Este 0 -- -- 93
2020-11-05 15:00:00 8.2 15 Este 32 Este 0.2 -- -- 95
2020-11-05 14:00:00 8.6 18 Este 29 Este 0.2 -- -- 93
2020-11-05 13:00:00 9.4 18 Este 29 Este 0 -- -- 82
2020-11-05 12:00:00 11.1 15 Este 37 Este 0 -- -- 74
2020-11-05 11:00:00 8.9 23 Este 38 Este 0 -- -- 80
2020-11-05 10:00:00 8.1 21 Este 41 Este 0 -- -- 85
2020-11-05 09:00:00 5.6 27 Este 39 Este 0 -- -- 96
2020-11-05 08:00:00 5.5 17 Este 31 Este 0 -- -- 98
2020-11-05 07:00:00 5.5 18 Este 34 Este 0 -- -- 98
2020-11-05 06:00:00 5.6 22 Este 34 Este 0 -- -- 97
2020-11-05 05:00:00 5.6 19 Este 34 Este 0 -- -- 97
2020-11-05 04:00:00 5.3 21 Este 39 Este 0 -- -- 99
2020-11-05 03:00:00 5 22 Este 36 Este 0 -- -- 100
2020-11-05 02:00:00 4.9 23 Este 37 Este 0 -- -- 99
2020-11-05 01:00:00 4.8 23 Este 33 Este 0 -- -- 100
2020-11-05 00:00:00 4.4 15 Este 30 Este 0 -- -- 100
2020-11-04 23:00:00 4 18 Este 31 Este 0 -- -- 99
2020-11-04 22:00:00 4 17 Este 30 Nordeste 0 -- -- 98
2020-11-04 21:00:00 3.8 14 Nordeste 26 Este 0 -- -- 97
2020-11-04 20:00:00 3.6 13 Este 30 Este 0.2 -- -- 97
2020-11-04 19:00:00 3.5 16 Este 30 Este 0 -- -- 97
2020-11-04 18:00:00 4.1 21 Este 33 Este 0 -- -- 90
2020-11-04 17:00:00 5.3 19 Este 35 Este 0 -- -- 80
2020-11-04 16:00:00 6.5 21 Este 35 Este 0 -- -- 74
2020-11-04 15:00:00 7.1 20 Este 30 Este 0 -- -- 72
2020-11-04 14:00:00 7.4 19 Este 32 Este 0 -- -- 69
2020-11-04 13:00:00 7.4 18 Este 32 Este 0 -- -- 65
2020-11-04 12:00:00 5.3 18 Este 27 Este 0 -- -- 69
2020-11-04 11:00:00 4.8 14 Nordeste 22 Este 0 -- -- 72
2020-11-04 10:00:00 3.8 12 Nordeste 24 Nordeste 0 -- -- 78
2020-11-04 09:00:00 2.6 12 Este 21 Nordeste 0 -- -- 83
2020-11-04 08:00:00 2.5 14 Nordeste 24 Nordeste 0 -- -- 84
2020-11-04 07:00:00 3.3 11 Nordeste 22 Este 0 -- -- 81
2020-11-04 06:00:00 3.4 9 Nordeste 21 Nordeste 0 -- -- 82
2020-11-04 05:00:00 3.6 11 Nordeste 22 Este 0 -- -- 82
2020-11-04 04:00:00 3.9 11 Nordeste 20 Nordeste 0 -- -- 82
2020-11-04 03:00:00 3.9 13 Nordeste 22 Nordeste 0 -- -- 82
2020-11-04 02:00:00 4.3 12 Nordeste 29 Nordeste 0 -- -- 81
2020-11-04 01:00:00 4.5 13 Nordeste 24 Norte 0 -- -- 82
2020-11-04 00:00:00 4.8 12 Nordeste 25 Nordeste 0 -- -- 84
2020-11-03 23:00:00 5.1 14 Norte 24 Norte 0 -- -- 86
2020-11-03 22:00:00 5.3 13 Nordeste 26 Nordeste 0 -- -- 86
2020-11-03 21:00:00 5.7 11 Nordeste 27 Nordeste 0.2 -- -- 85
2020-11-03 20:00:00 6.2 16 Nordeste 30 Nordeste 0 -- -- 85
2020-11-03 19:00:00 7.1 16 Nordeste 28 Nordeste 0 -- -- 84
2020-11-03 18:00:00 7.4 13 Nordeste 29 Norte 0 -- -- 80
2020-11-03 17:00:00 7.4 16 Nordeste 33 Nordeste 0 -- -- 82
2020-11-03 16:00:00 7.7 19 Norte 35 Norte 0 -- -- 82
2020-11-03 15:00:00 7.6 15 Nordeste 26 Nordeste 0 -- -- 92
2020-11-03 14:00:00 7.9 15 Nordeste 30 Nordeste 0 -- -- 87
2020-11-03 13:00:00 8.2 15 Nordeste 33 Nordeste 0 -- -- 90
2020-11-03 12:00:00 8.7 13 Nordeste 24 Nordeste 0 -- -- 92
2020-11-03 11:00:00 8.5 14 Nordeste 23 Nordeste 0.2 -- -- 94
2020-11-03 10:00:00 8.4 14 Este 25 Este 2 -- -- 99
2020-11-03 09:00:00 8.9 9 Nordeste 19 Nordeste 1 -- -- 99
2020-11-03 08:00:00 9.2 12 Este 18 Este 4.2 -- -- 99
2020-11-03 07:00:00 9.8 6 Este 10 Este 0 -- -- 98
2020-11-03 06:00:00 9.8 0 Calma 4 Nordeste 0 -- -- 99
2020-11-03 05:00:00 9.2 0 Calma 4 Norte 0 -- -- 100
2020-11-03 04:00:00 8.6 2 Noroeste 5 Oeste 0 -- -- 99
2020-11-03 03:00:00 8.8 0 Calma 5 Sur 0 -- -- 98
2020-11-03 02:00:00 10 4 Noroeste 15 Oeste 0 -- -- 95
2020-11-03 01:00:00 9.3 9 Oeste 14 Oeste 0 -- -- 100
2020-11-03 00:00:00 9.4 3 Norte 11 Oeste 0 -- -- 93
2020-11-02 23:00:00 10.1 6 Oeste 9 Oeste 0 -- -- 94
2020-11-02 22:00:00 9.5 6 Oeste 9 Oeste 0 -- -- 94
2020-11-02 21:00:00 10.9 5 Oeste 10 Noroeste 0 -- -- 90
2020-11-02 20:00:00 10.8 5 Oeste 8 Noroeste 0 -- -- 89
2020-11-02 19:00:00 12.1 5 Oeste 9 Noroeste 0 -- -- 83
2020-11-02 18:00:00 14.1 6 Noroeste 13 Noroeste 0 -- -- 76
2020-11-02 17:00:00 16.5 7 Noroeste 18 Oeste 0 -- -- 68
2020-11-02 16:00:00 16.5 13 Oeste 24 Noroeste 0 -- -- 67
2020-11-02 15:00:00 16.4 13 Oeste 31 Oeste 0 -- -- 68
2020-11-02 14:00:00 18 21 Oeste 35 Oeste 0 -- -- 62
2020-11-02 13:00:00 17.2 23 Oeste 37 Oeste 0 -- -- 65
2020-11-02 12:00:00 16 19 Oeste 33 Oeste 0 -- -- 74
2020-11-02 11:00:00 14.2 15 Oeste 26 Oeste 0 -- -- 83
2020-11-02 10:00:00 12.2 12 Oeste 21 Oeste 0 -- -- 87
2020-11-02 09:00:00 11.6 6 Oeste 13 Oeste 0 -- -- 86
2020-11-02 08:00:00 9 8 Oeste 15 Oeste 0 -- -- 92
2020-11-02 07:00:00 8.9 8 Sudoeste 18 Sudoeste 0 -- -- 94
2020-11-02 06:00:00 9.1 12 Sudoeste 15 Sudoeste 0 -- -- 94
2020-11-02 05:00:00 9.4 8 Sudoeste 12 Sudoeste 0 -- -- 96
2020-11-02 04:00:00 8.5 6 Sudoeste 9 Sur 0 -- -- 100
2020-11-02 03:00:00 9.1 4 Oeste 12 Sudoeste 0 -- -- 98
2020-11-02 02:00:00 8.7 4 Sudoeste 10 Sur 0 -- -- 98
2020-11-02 01:00:00 9.3 4 Oeste 6 Oeste 0 -- -- 95
2020-11-02 00:00:00 10 6 Oeste 10 Oeste 0 -- -- 92
2020-11-01 23:00:00 10.8 7 Oeste 10 Oeste 0 -- -- 87
2020-11-01 22:00:00 10.9 9 Oeste 13 Oeste 0 -- -- 85
2020-11-01 21:00:00 11 7 Oeste 10 Noroeste 0 -- -- 84
2020-11-01 20:00:00 11.8 6 Oeste 13 Noroeste 0 -- -- 83
2020-11-01 19:00:00 12.9 6 Oeste 14 Oeste 0 -- -- 79
2020-11-01 18:00:00 14.6 9 Oeste 18 Oeste 0 -- -- 72
2020-11-01 17:00:00 18.4 12 Oeste 22 Oeste 0 -- -- 57
2020-11-01 16:00:00 17.6 12 Oeste 27 Oeste 0 -- -- 60
2020-11-01 15:00:00 19.1 14 Oeste 29 Oeste 0 -- -- 57
2020-11-01 14:00:00 18.2 18 Oeste 31 Oeste 0 -- -- 61
2020-11-01 13:00:00 17.8 18 Oeste 28 Oeste 0 -- -- 64
2020-11-01 12:00:00 16.8 14 Oeste 27 Oeste 0 -- -- 69
2020-11-01 11:00:00 15.4 17 Oeste 28 Oeste 0 -- -- 75
2020-11-01 10:00:00 13.6 11 Oeste 21 Noroeste 0 -- -- 81
2020-11-01 09:00:00 13 8 Oeste 17 Oeste 0 -- -- 83
2020-11-01 08:00:00 9.8 11 Oeste 21 Oeste 0 -- -- 95
2020-11-01 07:00:00 9.5 13 Oeste 22 Oeste 0 -- -- 97
2020-11-01 06:00:00 9.6 15 Oeste 24 Oeste 0 -- -- 95
2020-11-01 05:00:00 9.7 11 Oeste 17 Oeste 0 -- -- 95
2020-11-01 04:00:00 6.6 6 Sudoeste 9 Sudoeste 0 -- -- 98
2020-11-01 03:00:00 9.3 7 Oeste 19 Oeste 0 -- -- 90
2020-11-01 02:00:00 10.1 12 Oeste 19 Oeste 0 -- -- 86
2020-11-01 01:00:00 9.7 10 Oeste 17 Oeste 0 -- -- 88
2020-11-01 00:00:00 9.4 10 Oeste 14 Oeste 0 -- -- 87
2020-10-31 23:00:00 9 7 Oeste 10 Oeste 0 -- -- 89
2020-10-31 22:00:00 8 4 Sudoeste 8 Sudoeste 0 -- -- 93
2020-10-31 21:00:00 11.4 7 Oeste 15 Oeste 0 -- -- 77
2020-10-31 20:00:00 11.7 12 Noroeste 16 Oeste 0 -- -- 76
2020-10-31 19:00:00 11.9 8 Oeste 15 Oeste 0 -- -- 73
2020-10-31 18:00:00 14 5 Oeste 13 Oeste 0 -- -- 66
2020-10-31 17:00:00 18.3 11 Oeste 25 Noroeste 0 -- -- 50
2020-10-31 16:00:00 17.5 13 Noroeste 29 Noroeste 0 -- -- 56
2020-10-31 15:00:00 19.5 16 Oeste 32 Oeste 0 -- -- 48
2020-10-31 14:00:00 19.4 14 Oeste 29 Oeste 0 -- -- 52
2020-10-31 13:00:00 18.4 15 Oeste 27 Oeste 0 -- -- 54
2020-10-31 12:00:00 17.8 14 Noroeste 27 Noroeste 0 -- -- 57
2020-10-31 11:00:00 16.2 13 Oeste 24 Noroeste 0 -- -- 62
2020-10-31 10:00:00 13.8 3 Norte 6 Noroeste 0 -- -- 67
2020-10-31 09:00:00 12.1 0 Calma 9 Oeste 0 -- -- 76
2020-10-31 08:00:00 4.6 5 Oeste 8 Oeste 0 -- -- 96
2020-10-31 07:00:00 5.1 3 Noroeste 6 Noroeste 0 -- -- 100
2020-10-31 06:00:00 4 4 Noroeste 6 Noroeste 0 -- -- 100
2020-10-31 05:00:00 5.4 0 Calma 12 Sudoeste 0 -- -- 98
2020-10-31 04:00:00 4.9 0 Calma 4 Oeste 0 -- -- 100
2020-10-31 03:00:00 5.3 3 Sudoeste 5 Sudoeste 0 -- -- 99
2020-10-31 02:00:00 5.2 4 Sudoeste 6 Sudoeste 0 -- -- 99
2020-10-31 01:00:00 5.7 5 Sur 6 Sur 0 -- -- 93
2020-10-31 00:00:00 6.7 4 Noroeste 6 Noroeste 0 -- -- 89
2020-10-30 23:00:00 7.4 5 Noroeste 8 Oeste 0 -- -- 83
2020-10-30 22:00:00 8.6 6 Oeste 8 Oeste 0 -- -- 81
2020-10-30 21:00:00 9.9 5 Oeste 8 Oeste 0 -- -- 74
2020-10-30 20:00:00 10.4 6 Oeste 8 Oeste 0 -- -- 71
2020-10-30 19:00:00 11.8 8 Oeste 11 Oeste 0 -- -- 65
2020-10-30 18:00:00 13.9 5 Oeste 13 Oeste 0 -- -- 58
2020-10-30 17:00:00 18 8 Oeste 19 Oeste 0 -- -- 44
2020-10-30 16:00:00 18.4 14 Oeste 22 Oeste 0 -- -- 44
2020-10-30 15:00:00 18 16 Sudoeste 24 Oeste 0 -- -- 44
2020-10-30 14:00:00 18.5 13 Oeste 22 Oeste 0 -- -- 41
2020-10-30 13:00:00 17.8 12 Oeste 20 Oeste 0 -- -- 48
2020-10-30 12:00:00 17.2 10 Noroeste 17 Oeste 0 -- -- 52
2020-10-30 11:00:00 15.2 0 Calma 5 Sur 0 -- -- 75
2020-10-30 10:00:00 10.7 0 Calma 6 Sudeste 0 -- -- 93
2020-10-30 09:00:00 6.5 0 Calma 3 Sudeste 0 -- -- 100
2020-10-30 08:00:00 1.4 3 Noroeste 4 Noroeste 0 -- -- 100
2020-10-30 07:00:00 2.2 3 Este 4 Nordeste 0 -- -- 100
2020-10-30 06:00:00 1.6 0 Calma 6 Este 0 -- -- 100
2020-10-30 05:00:00 2.6 3 Este 5 Sudeste 0 -- -- 100
2020-10-30 04:00:00 3.6 5 Sudeste 8 Este 0 -- -- 100
2020-10-30 03:00:00 3.9 6 Este 6 Sudeste 0 -- -- 100
2020-10-30 02:00:00 3.9 3 Nordeste 4 Nordeste 0 -- -- 100
2020-10-30 01:00:00 4.7 0 Calma 7 Este 0 -- -- 100
2020-10-30 00:00:00 5.4 2 Nordeste 6 Nordeste 0 -- -- 99
2020-10-29 23:00:00 6.4 2 Sudoeste 12 Sudoeste 0 -- -- 94
2020-10-29 22:00:00 6.2 8 Sudoeste 10 Sudoeste 0 -- -- 99
2020-10-29 21:00:00 8.2 9 Sudoeste 17 Sudoeste 0 -- -- 87
2020-10-29 20:00:00 8.4 10 Sudoeste 13 Sudoeste 0 -- -- 87
2020-10-29 19:00:00 9.6 8 Sudoeste 12 Sudoeste 0 -- -- 85
2020-10-29 18:00:00 12.2 6 Sudoeste 9 Sudoeste 0 -- -- 76
2020-10-29 17:00:00 17.1 5 Sudoeste 13 Sudoeste 0 -- -- 52
2020-10-29 16:00:00 17.4 9 Sudoeste 15 Sur 0 -- -- 54
2020-10-29 15:00:00 17.3 9 Sur 19 Sudoeste 0 -- -- 56
2020-10-29 14:00:00 16.8 9 Sudoeste 16 Oeste 0 -- -- 54
2020-10-29 13:00:00 15.8 8 Sudoeste 17 Oeste 0 -- -- 59
2020-10-29 12:00:00 14 6 Sudoeste 16 Sur 0 -- -- 67
2020-10-29 11:00:00 11.9 4 Noroeste 10 Noroeste 0 -- -- 82
2020-10-29 10:00:00 8.6 2 Oeste 11 Sur 0 -- -- 99
2020-10-29 09:00:00 5.6 8 Sur 14 Sudoeste 0 -- -- 100
2020-10-29 08:00:00 3.2 4 Sur 12 Nordeste 0 -- -- 100
2020-10-29 07:00:00 3.9 4 Sudoeste 8 Oeste 0 -- -- 100
2020-10-29 06:00:00 5.9 5 Oeste 14 Oeste 0 -- -- 98
2020-10-29 05:00:00 7.3 8 Oeste 17 Noroeste 0 -- -- 99
2020-10-29 04:00:00 8.5 6 Oeste 10 Oeste 0 -- -- 100
2020-10-29 03:00:00 8.7 6 Oeste 14 Sudoeste 0 -- -- 100
2020-10-29 02:00:00 8.6 8 Sudoeste 14 Sudoeste 0 -- -- 100
2020-10-29 01:00:00 8.1 8 Sudoeste 12 Sudoeste 0 -- -- 100
2020-10-29 00:00:00 7.3 5 Sudoeste 13 Sudoeste 0 -- -- 100
2020-10-28 23:00:00 6.5 10 Sudoeste 15 Sudoeste 0 -- -- 100
2020-10-28 22:00:00 7.3 11 Sudoeste 15 Sudoeste 0 -- -- 100
2020-10-28 21:00:00 6.9 5 Oeste 8 Oeste 0 -- -- 97
2020-10-28 20:00:00 9.1 4 Oeste 20 Oeste 0 -- -- 91
2020-10-28 19:00:00 10 10 Oeste 17 Oeste 0 -- -- 87
2020-10-28 18:00:00 12 13 Oeste 26 Oeste 0 -- -- 78
2020-10-28 17:00:00 13.7 18 Oeste 31 Oeste 0 -- -- 71
2020-10-28 16:00:00 16.5 14 Oeste 26 Noroeste 0 -- -- 66
2020-10-28 15:00:00 14.4 12 Oeste 29 Oeste 0 -- -- 75
2020-10-28 14:00:00 14.7 19 Oeste 31 Oeste 0 -- -- 79
2020-10-28 13:00:00 11.7 13 Oeste 22 Oeste 0 -- -- 98
2020-10-28 12:00:00 9.6 6 Sudoeste 15 Sudoeste 0 -- -- 100
2020-10-28 11:00:00 8.1 10 Sudoeste 15 Sudoeste 0.2 -- -- 100
2020-10-28 10:00:00 7.7 9 Sudoeste 17 Sudoeste 0.2 -- -- 100
2020-10-28 09:00:00 6.9 10 Sur 15 Sur 0.2 -- -- 100
2020-10-28 08:00:00 6.6 9 Sur 16 Sur 0.2 -- -- 100
2020-10-28 07:00:00 7 8 Sudoeste 13 Sudoeste 0 -- -- 100
2020-10-28 06:00:00 8 8 Sudoeste 18 Sudoeste 0 -- -- 100
2020-10-28 05:00:00 7.9 12 Oeste 25 Sudoeste 0 -- -- 99
2020-10-28 04:00:00 7.7 12 Oeste 23 Oeste 0 -- -- 98
2020-10-28 03:00:00 7.7 12 Oeste 24 Oeste 0 -- -- 97
2020-10-28 02:00:00 7.4 8 Noroeste 27 Oeste 0 -- -- 97
2020-10-28 01:00:00 7.5 17 Oeste 31 Oeste 0 -- -- 98
2020-10-28 00:00:00 7.5 16 Oeste 30 Oeste 0 -- -- 98
2020-10-27 23:00:00 7.3 17 Oeste 36 Oeste 0 -- -- 96
2020-10-27 22:00:00 7.4 16 Oeste 36 Noroeste 0 -- -- 93
2020-10-27 21:00:00 7.4 19 Oeste 32 Oeste 0 -- -- 92
2020-10-27 20:00:00 7.4 18 Oeste 33 Oeste 0 -- -- 90
2020-10-27 19:00:00 7.4 18 Oeste 36 Oeste 0 -- -- 89
2020-10-27 18:00:00 7.7 21 Oeste 33 Oeste 0 -- -- 85
2020-10-27 17:00:00 7.8 21 Oeste 38 Oeste 0 -- -- 84
2020-10-27 16:00:00 8 21 Oeste 45 Oeste 0 -- -- 83
2020-10-27 15:00:00 8.2 27 Oeste 47 Oeste 0 -- -- 80
2020-10-27 14:00:00 7.8 19 Oeste 45 Noroeste 0 -- -- 83
2020-10-27 13:00:00 8 27 Oeste 46 Oeste 0 -- -- 79
2020-10-27 12:00:00 6.4 22 Oeste 42 Oeste 0 -- -- 86
2020-10-27 11:00:00 5.7 23 Oeste 42 Oeste 0 -- -- 88
2020-10-27 10:00:00 4.8 25 Oeste 37 Oeste 0 -- -- 90
2020-10-27 09:00:00 4.2 18 Oeste 34 Oeste 0 -- -- 94
2020-10-27 08:00:00 4 18 Oeste 32 Oeste 0 -- -- 95
2020-10-27 07:00:00 4.1 15 Oeste 30 Oeste 0 -- -- 93
2020-10-27 06:00:00 3.9 16 Oeste 28 Oeste 0 -- -- 95
2020-10-27 05:00:00 4 16 Oeste 30 Oeste 0 -- -- 93
2020-10-27 04:00:00 3.9 18 Oeste 34 Oeste 0 -- -- 93
2020-10-27 03:00:00 4 18 Oeste 36 Oeste 0 -- -- 92
2020-10-27 02:00:00 4.3 19 Oeste 31 Oeste 0 -- -- 92
2020-10-27 01:00:00 4.5 21 Oeste 36 Oeste 0 -- -- 90
2020-10-27 00:00:00 4.6 17 Oeste 32 Oeste 0 -- -- 90